Time;durP1;ratioP1;P1;durP2;ratioP2;P2;SDS_P1;SDS_P2;PMS_P1;PMS_P2;Temp;Humidity;BMP_temperature;BMP_pressure;BME280_temperature;BME280_humidity;BME280_pressure;Samples;Min_cycle;Max_cycle;Signal;HPM_P1;HPM_P2
2023/09/02 00:00:28;;;;;;;9.38;4.85;;;;;;;21.95;77.63;100971.84;5044936;28;20044;-65
2023/09/02 00:02:57;;;;;;;13.52;4.50;;;;;;;21.97;77.87;100968.66;5040144;28;20041;-64
2023/09/02 00:05:25;;;;;;;8.48;4.32;;;;;;;21.77;78.43;100965.22;5040444;28;20045;-65
2023/09/02 00:07:52;;;;;;;8.48;4.78;;;;;;;21.98;78.09;100964.66;5043287;28;20543;-65
2023/09/02 00:10:19;;;;;;;36.13;25.88;;;;;;;22.16;77.00;100972.06;5038553;28;20053;-65
2023/09/02 00:12:47;;;;;;;17.73;11.60;;;;;;;22.21;76.92;100973.75;5045575;28;20431;-66
2023/09/02 00:15:15;;;;;;;12.45;7.82;;;;;;;22.14;76.90;100980.06;5045665;28;20293;-64
2023/09/02 00:17:43;;;;;;;10.20;5.10;;;;;;;22.09;77.35;100979.59;5038905;28;20045;-65
2023/09/02 00:20:11;;;;;;;7.57;4.13;;;;;;;22.07;76.88;100985.59;5055450;28;20053;-65
2023/09/02 00:22:38;;;;;;;7.90;4.05;;;;;;;22.02;77.38;100971.91;5042979;28;20053;-65
2023/09/02 00:25:06;;;;;;;11.18;3.90;;;;;;;22.00;77.11;100979.91;5044351;28;20068;-65
2023/09/02 00:27:33;;;;;;;7.45;3.50;;;;;;;21.87;78.00;100984.19;5041796;28;20044;-65
2023/09/02 00:30:00;;;;;;;8.75;3.80;;;;;;;21.95;77.71;100983.06;5035528;28;20075;-65
2023/09/02 00:32:29;;;;;;;6.78;3.17;;;;;;;21.94;77.57;100973.03;5038903;28;20057;-65
2023/09/02 00:34:56;;;;;;;6.55;3.35;;;;;;;21.77;77.99;100986.81;5039084;28;20045;-65
2023/09/02 00:37:24;;;;;;;8.68;4.13;;;;;;;21.97;77.53;100989.09;5038747;28;20053;-65
2023/09/02 00:39:51;;;;;;;6.55;3.38;;;;;;;22.00;77.11;100990.34;5038510;28;20049;-65
2023/09/02 00:42:20;;;;;;;8.25;3.80;;;;;;;21.97;77.12;100986.28;5034838;28;20457;-65
2023/09/02 00:44:47;;;;;;;7.38;3.75;;;;;;;21.97;77.40;100991.09;5043479;28;20147;-65
2023/09/02 00:47:14;;;;;;;7.20;3.15;;;;;;;21.92;77.37;100983.03;5039369;28;20183;-65
2023/09/02 00:49:44;;;;;;;6.40;3.50;;;;;;;21.90;77.97;100991.00;5063646;28;20049;-65
2023/09/02 00:52:11;;;;;;;9.80;4.10;;;;;;;21.92;77.64;100994.25;5040791;28;20041;-66
2023/09/02 00:54:38;;;;;;;7.85;3.55;;;;;;;21.92;77.55;100986.63;5036468;28;20046;-64
2023/09/02 00:57:06;;;;;;;9.13;3.80;;;;;;;21.80;78.12;100986.91;5038606;28;20049;-64
2023/09/02 00:59:34;;;;;;;7.88;3.70;;;;;;;21.79;77.92;100978.88;5037686;28;20037;-65
2023/09/02 01:02:03;;;;;;;7.20;3.33;;;;;;;21.80;77.83;100975.69;5041209;28;20049;-65
2023/09/02 01:04:32;;;;;;;8.13;3.20;;;;;;;21.82;77.58;100970.50;5021704;28;20132;-66
2023/09/02 01:07:01;;;;;;;7.53;3.00;;;;;;;21.71;77.83;100972.34;5043098;28;20055;-64
2023/09/02 01:09:30;;;;;;;5.47;3.00;;;;;;;21.64;77.92;100980.66;5039402;28;20049;-64
2023/09/02 01:11:57;;;;;;;5.40;2.72;;;;;;;21.67;77.63;100979.09;5042578;28;20045;-65
2023/09/02 01:14:25;;;;;;;8.27;3.08;;;;;;;21.65;77.78;100982.28;5045652;28;20044;-66
2023/09/02 01:16:53;;;;;;;7.20;3.15;;;;;;;21.70;77.62;100976.34;5015187;28;21375;-66
2023/09/02 01:19:21;;;;;;;6.00;2.53;;;;;;;21.76;77.44;100976.81;5041497;28;20076;-64
2023/09/02 01:22:00;;;;;;;7.72;2.80;;;;;;;21.65;77.36;100985.09;5027067;28;20045;-65
2023/09/02 01:24:49;;;;;;;6.10;2.85;;;;;;;21.50;77.93;100991.69;5034608;28;20053;-66
2023/09/02 01:27:21;;;;;;;8.03;3.07;;;;;;;21.54;78.13;100983.31;5037735;28;20041;-65
2023/09/02 01:29:55;;;;;;;6.57;2.67;;;;;;;21.47;78.44;100981.25;5039302;28;20065;-64
2023/09/02 01:32:27;;;;;;;5.35;2.25;;;;;;;21.22;78.99;100991.28;5035446;28;20512;-65
2023/09/02 01:34:56;;;;;;;9.32;2.65;;;;;;;21.26;79.57;100989.34;5034436;28;20045;-66
2023/09/02 01:37:24;;;;;;;5.82;2.75;;;;;;;21.27;79.51;100993.75;5035486;28;20041;-62
2023/09/02 01:39:52;;;;;;;7.30;2.65;;;;;;;21.34;79.26;100993.06;5029492;28;20052;-63
2023/09/02 01:42:20;;;;;;;7.63;3.00;;;;;;;21.05;80.24;100981.47;5041809;28;20057;-62
2023/09/02 01:44:47;;;;;;;4.75;2.50;;;;;;;21.09;80.35;100981.50;5032102;28;20408;-62
2023/09/02 01:47:15;;;;;;;8.52;3.05;;;;;;;21.19;80.24;100980.84;5022367;28;20088;-61
2023/09/02 01:49:45;;;;;;;6.55;2.70;;;;;;;21.18;80.04;100982.84;5033944;28;20661;-62
2023/09/02 01:52:14;;;;;;;5.38;2.83;;;;;;;21.05;80.54;100975.84;5033996;28;20059;-62
2023/09/02 01:54:41;;;;;;;8.35;2.60;;;;;;;20.84;80.96;100978.28;5024167;28;20063;-62
2023/09/02 01:57:11;;;;;;;6.03;2.80;;;;;;;20.88;81.46;100979.16;5018753;28;20049;-61
2023/09/02 01:59:38;;;;;;;6.53;2.95;;;;;;;20.77;81.84;100969.78;5039251;28;20049;-62
2023/09/02 02:02:06;;;;;;;5.72;2.50;;;;;;;20.70;82.14;100968.84;5043615;28;20718;-62
2023/09/02 02:04:35;;;;;;;8.20;2.88;;;;;;;20.56;83.50;100963.84;5026719;28;20045;-62
2023/09/02 02:07:06;;;;;;;5.97;2.60;;;;;;;20.66;83.32;100963.19;5033412;28;20045;-62
2023/09/02 02:09:39;;;;;;;6.80;2.65;;;;;;;20.74;82.69;100961.31;5018708;28;20064;-62
2023/09/02 02:12:07;;;;;;;6.45;2.42;;;;;;;20.74;82.27;100961.31;5035077;28;20460;-62
2023/09/02 02:14:35;;;;;;;5.22;2.08;;;;;;;20.66;82.73;100954.78;5040022;28;20051;-62
2023/09/02 02:17:03;;;;;;;6.70;2.22;;;;;;;20.57;83.44;100950.66;5038072;28;20041;-62
2023/09/02 02:19:31;;;;;;;5.40;2.53;;;;;;;20.82;82.70;100951.84;5023630;28;20041;-62
2023/09/02 02:21:58;;;;;;;6.68;2.10;;;;;;;20.82;81.77;100944.25;5035256;28;20060;-62
2023/09/02 02:24:26;;;;;;;6.93;2.20;;;;;;;20.77;82.04;100947.38;5038471;28;20045;-62
2023/09/02 02:26:56;;;;;;;;;;;;;;;20.76;82.40;100956.97;5046740;28;20037;-62
2023/09/02 02:29:23;;;;;;;8.23;2.35;;;;;;;20.78;82.38;100953.78;5033903;28;20351;-62
2023/09/02 02:31:50;;;;;;;4.82;2.53;;;;;;;20.61;83.27;100969.13;5042841;28;20113;-61
2023/09/02 02:34:18;;;;;;;6.22;2.30;;;;;;;20.45;84.05;100962.06;5045346;28;20408;-61
2023/09/02 02:36:45;;;;;;;6.50;2.42;;;;;;;20.52;84.24;100968.56;5040740;28;20048;-62
2023/09/02 02:39:12;;;;;;;3.70;2.05;;;;;;;20.40;84.43;100970.75;5043334;28;20053;-63
2023/09/02 02:41:39;;;;;;;4.63;2.17;;;;;;;20.45;84.67;100962.06;5033608;28;20049;-62
2023/09/02 02:44:07;;;;;;;4.82;2.25;;;;;;;20.30;84.58;100960.16;5039036;28;20072;-62
2023/09/02 02:46:34;;;;;;;6.03;2.60;;;;;;;20.38;84.97;100961.94;5044281;28;20048;-63
2023/09/02 02:49:02;;;;;;;5.50;2.55;;;;;;;20.41;84.67;100972.38;5041188;28;20049;-62
2023/09/02 02:51:29;;;;;;;6.97;2.67;;;;;;;20.51;84.36;100972.53;5044370;28;20370;-61
2023/09/02 02:53:56;;;;;;;6.30;2.72;;;;;;;20.45;84.82;100971.22;5039373;28;20048;-62
2023/09/02 02:56:23;;;;;;;5.15;2.28;;;;;;;20.37;85.34;100975.09;5045559;28;20051;-62
2023/09/02 02:58:51;;;;;;;5.45;2.10;;;;;;;20.41;85.00;100969.56;5045133;28;20045;-62
2023/09/02 03:01:18;;;;;;;5.43;2.20;;;;;;;20.28;84.95;100963.34;5042770;28;20555;-62
2023/09/02 03:03:47;;;;;;;6.97;2.50;;;;;;;20.20;86.05;100963.59;5041864;28;20061;-61
2023/09/02 03:06:21;;;;;;;4.97;2.17;;;;;;;20.27;85.67;100964.53;5037843;28;20044;-62
2023/09/02 03:08:48;;;;;;;5.20;2.22;;;;;;;20.40;85.31;100984.75;5038149;28;20049;-61
2023/09/02 03:11:15;;;;;;;7.05;2.80;;;;;;;20.44;84.90;100983.63;5043956;28;20144;-62
2023/09/02 03:13:43;;;;;;;3.55;2.20;;;;;;;20.42;84.96;100979.56;5045784;28;20515;-61
2023/09/02 03:16:15;;;;;;;4.35;2.15;;;;;;;20.51;84.70;100980.13;5040218;28;20053;-62
2023/09/02 03:18:45;;;;;;;5.88;2.08;;;;;;;20.36;84.72;100979.09;5049809;28;20045;-62
2023/09/02 03:21:12;;;;;;;7.40;2.20;;;;;;;20.46;84.58;100989.66;5043139;28;20041;-62
2023/09/02 03:23:40;;;;;;;5.60;2.20;;;;;;;20.44;84.48;100989.22;5043246;28;20052;-62
2023/09/02 03:26:08;;;;;;;4.53;2.08;;;;;;;20.31;85.31;100996.16;5044545;28;20412;-62
2023/09/02 03:28:37;;;;;;;5.78;2.60;;;;;;;20.40;84.96;100990.34;5046927;28;20509;-63
2023/09/02 03:31:08;;;;;;;6.45;2.30;;;;;;;20.46;84.71;101000.84;5023844;28;20448;-62
2023/09/02 03:33:37;;;;;;;6.70;1.98;;;;;;;20.40;84.63;101002.31;5034920;28;20049;-62
2023/09/02 03:36:06;;;;;;;5.93;2.30;;;;;;;20.48;84.69;100997.66;5039066;28;20136;-63
2023/09/02 03:38:33;;;;;;;6.25;2.13;;;;;;;20.46;84.74;101005.63;5043576;28;20606;-62
2023/09/02 03:41:10;;;;;;;6.35;2.22;;;;;;;20.56;84.58;101000.22;5037423;28;20044;-63
2023/09/02 03:43:38;;;;;;;8.25;2.13;;;;;;;20.53;84.31;101014.97;5036831;28;20061;-62
2023/09/02 03:46:06;;;;;;;4.07;2.25;;;;;;;20.53;84.03;101014.97;5037643;28;20045;-63
2023/09/02 03:48:34;;;;;;;5.15;2.47;;;;;;;20.44;84.84;101022.78;5033840;28;20060;-62
2023/09/02 03:51:11;;;;;;;5.35;2.38;;;;;;;20.48;84.48;101015.28;5007995;28;20610;-63
2023/09/02 03:53:42;;;;;;;;;;;;;;;20.38;84.54;101012.28;5040493;28;20053;-62
2023/09/02 03:56:11;;;;;;;7.72;2.33;;;;;;;20.42;84.42;101016.75;5037054;28;19937;-62
2023/09/02 03:58:39;;;;;;;8.43;2.50;;;;;;;20.20;85.26;101003.56;5039599;28;20457;-63
2023/09/02 04:01:08;;;;;;;5.13;2.23;;;;;;;20.26;85.51;100996.47;5036780;28;20037;-61
2023/09/02 04:03:37;;;;;;;7.72;2.78;;;;;;;20.29;85.59;100997.72;5043303;28;20048;-61
2023/09/02 04:06:08;;;;;;;7.53;2.00;;;;;;;20.20;86.06;100980.38;5036591;28;20536;-62
2023/09/02 04:08:36;;;;;;;5.50;2.30;;;;;;;20.24;86.08;100989.66;5037336;28;20056;-62
2023/09/02 04:11:03;;;;;;;6.63;2.22;;;;;;;20.30;85.71;100986.16;5044115;28;20049;-62
2023/09/02 04:13:31;;;;;;;4.97;2.42;;;;;;;20.45;85.06;100984.44;5041260;28;20153;-62
2023/09/02 04:16:02;;;;;;;6.75;2.47;;;;;;;20.45;85.12;100987.22;5035932;28;20037;-62
2023/09/02 04:18:33;;;;;;;7.93;2.60;;;;;;;20.23;85.51;100988.00;5042807;28;20057;-62
2023/09/02 04:21:02;;;;;;;4.43;2.30;;;;;;;20.36;85.45;100984.69;5029791;28;20045;-62
2023/09/02 04:23:31;;;;;;;6.32;2.53;;;;;;;20.33;85.01;100981.81;5038331;28;20066;-62
2023/09/02 04:26:04;;;;;;;5.78;2.72;;;;;;;20.19;85.49;100990.75;5031654;28;20053;-63
2023/09/02 04:28:31;;;;;;;6.53;2.75;;;;;;;20.28;85.62;100993.28;5041279;28;20709;-63
2023/09/02 04:30:59;;;;;;;8.10;2.92;;;;;;;20.29;85.73;100992.94;5044831;28;20040;-62
2023/09/02 04:33:30;;;;;;;6.07;2.42;;;;;;;20.40;85.07;100990.34;5046924;28;20052;-63
2023/09/02 04:36:00;;;;;;;7.22;2.85;;;;;;;20.28;85.44;100996.91;5040084;28;20049;-62
2023/09/02 04:38:29;;;;;;;4.85;2.40;;;;;;;20.26;85.89;100999.28;5024843;28;20053;-62
2023/09/02 04:40:56;;;;;;;7.43;2.63;;;;;;;20.29;85.64;100997.72;5063505;28;20049;-62
2023/09/02 04:43:24;;;;;;;7.68;2.80;;;;;;;20.34;85.66;101006.63;5037325;28;20065;-62
2023/09/02 04:45:53;;;;;;;12.07;2.60;;;;;;;20.29;85.35;101008.91;5035352;28;20053;-62
2023/09/02 04:48:21;;;;;;;8.80;2.83;;;;;;;20.33;85.49;101005.00;5043726;28;20660;-62
2023/09/02 04:50:55;;;;;;;5.55;3.00;;;;;;;20.40;84.80;101004.34;5047699;28;20068;-62
2023/09/02 04:53:24;;;;;;;5.00;2.55;;;;;;;20.26;85.01;100998.47;5037533;28;20622;-62
2023/09/02 04:55:52;;;;;;;8.45;3.28;;;;;;;20.26;84.93;100998.47;5042855;28;20038;-63
2023/09/02 04:58:23;;;;;;;5.15;2.70;;;;;;;20.23;85.57;101000.03;5033989;28;20045;-63
2023/09/02 05:00:52;;;;;;;6.35;2.60;;;;;;;20.35;85.12;100999.84;5050584;28;20053;-63
2023/09/02 05:03:20;;;;;;;7.53;2.95;;;;;;;20.16;85.89;100999.88;5038629;28;20056;-62
2023/09/02 05:05:49;;;;;;;8.38;2.85;;;;;;;20.04;86.69;101011.22;5036929;28;20068;-63
2023/09/02 05:08:17;;;;;;;8.25;2.90;;;;;;;20.11;86.29;101017.75;5054098;28;20053;-63
2023/09/02 05:10:45;;;;;;;5.45;2.63;;;;;;;20.28;85.87;101015.69;5043640;28;20045;-63
2023/09/02 05:13:12;;;;;;;4.40;2.30;;;;;;;20.21;86.04;101021.16;5026538;28;20040;-62
2023/09/02 05:15:40;;;;;;;8.40;2.80;;;;;;;20.17;86.36;101021.09;5039397;28;20049;-62
2023/09/02 05:18:07;;;;;;;4.55;2.55;;;;;;;20.20;86.47;101019.53;5037181;28;20053;-63
2023/09/02 05:20:40;;;;;;;6.03;2.63;;;;;;;20.06;86.40;101020.84;5036427;28;20511;-62
2023/09/02 05:23:07;;;;;;;5.65;2.60;;;;;;;20.14;86.29;101022.59;5042704;28;20048;-62
2023/09/02 05:25:35;;;;;;;6.75;2.80;;;;;;;20.10;86.68;101024.50;5033476;28;20045;-62
2023/09/02 05:28:02;;;;;;;6.97;2.67;;;;;;;20.07;86.62;101033.66;5036106;28;20053;-62
2023/09/02 05:30:31;;;;;;;7.07;3.03;;;;;;;20.10;86.84;101038.50;5038096;28;20049;-60
2023/09/02 05:32:58;;;;;;;9.13;2.72;;;;;;;19.98;87.40;101035.88;5037470;28;20037;-62
2023/09/02 05:35:26;;;;;;;5.47;2.75;;;;;;;20.13;87.29;101046.19;5038096;28;20061;-62
2023/09/02 05:37:53;;;;;;;5.22;2.53;;;;;;;20.34;85.56;101045.81;5038766;28;20083;-61
2023/09/02 05:40:20;;;;;;;5.57;2.95;;;;;;;20.13;85.80;101043.38;5034796;28;20056;-63
2023/09/02 05:42:48;;;;;;;6.25;2.97;;;;;;;19.85;86.70;101050.38;5040113;28;20061;-62
2023/09/02 05:45:15;;;;;;;7.35;2.72;;;;;;;19.88;87.46;101056.03;5038935;28;20057;-62
2023/09/02 05:47:42;;;;;;;9.32;3.05;;;;;;;19.97;87.91;101064.19;5035823;28;20057;-62
2023/09/02 05:50:10;;;;;;;11.63;3.17;;;;;;;20.15;86.86;101057.00;5037053;28;20049;-63
2023/09/02 05:52:39;;;;;;;7.10;2.53;;;;;;;20.41;85.76;101064.69;5037601;28;20555;-62
2023/09/02 05:55:06;;;;;;;8.13;3.13;;;;;;;20.26;86.01;101062.81;5038449;28;21240;-62
2023/09/02 05:57:34;;;;;;;6.35;2.92;;;;;;;20.41;85.18;101064.69;5039379;28;20527;-63
2023/09/02 06:00:03;;;;;;;9.90;3.22;;;;;;;20.41;84.91;101056.31;5041964;28;20272;-62
2023/09/02 06:02:38;;;;;;;6.32;2.80;;;;;;;20.55;84.15;101057.38;5041846;28;20047;-62
2023/09/02 06:05:06;;;;;;;8.02;2.60;;;;;;;20.28;84.47;101057.63;5036481;28;20068;-62
2023/09/02 06:07:33;;;;;;;14.32;7.75;;;;;;;20.05;85.70;101063.97;5036246;28;20052;-62
2023/09/02 06:10:01;;;;;;;24.95;16.33;;;;;;;20.37;85.25;101061.84;5034685;28;20377;-62
2023/09/02 06:12:28;;;;;;;8.38;3.20;;;;;;;20.54;83.74;101060.56;5042467;28;20574;-63
2023/09/02 06:14:55;;;;;;;8.20;2.88;;;;;;;20.67;82.92;101075.97;5044884;28;20059;-62
2023/09/02 06:17:24;;;;;;;4.93;2.42;;;;;;;20.59;83.84;101072.25;5038887;28;20053;-62
2023/09/02 06:19:51;;;;;;;5.65;2.97;;;;;;;20.66;83.20;101077.19;5039682;28;20051;-63
2023/09/02 06:22:19;;;;;;;17.17;9.82;;;;;;;20.75;83.08;101075.72;5033775;28;20056;-63
2023/09/02 06:24:46;;;;;;;8.48;5.13;;;;;;;20.71;83.52;101074.06;5043201;28;20041;-62
2023/09/02 06:27:13;;;;;;;9.57;3.80;;;;;;;20.78;82.81;101077.78;5037987;28;20056;-63
2023/09/02 06:29:43;;;;;;;7.63;3.30;;;;;;;20.75;82.72;101080.50;5036613;28;20049;-62
2023/09/02 06:32:11;;;;;;;8.48;3.28;;;;;;;20.84;82.93;101087.50;5037222;28;20052;-62
2023/09/02 06:34:38;;;;;;;14.45;3.67;;;;;;;21.17;81.50;101084.06;5045465;28;20052;-62
2023/09/02 06:37:06;;;;;;;6.90;3.40;;;;;;;21.04;81.64;101085.47;5041432;28;20056;-63
2023/09/02 06:39:33;;;;;;;9.77;3.58;;;;;;;21.05;81.19;101085.09;5039007;28;20053;-64
2023/09/02 06:42:00;;;;;;;7.25;2.58;;;;;;;20.89;81.28;101092.78;5035708;28;20676;-62
2023/09/02 06:44:31;;;;;;;5.75;2.60;;;;;;;21.04;80.58;101083.47;5034294;28;20522;-62
2023/09/02 06:46:59;;;;;;;6.45;2.72;;;;;;;20.76;80.80;101084.94;5039113;28;20064;-62
2023/09/02 06:49:27;;;;;;;6.82;2.75;;;;;;;20.49;82.09;101081.25;5037784;28;20474;-62
2023/09/02 06:51:54;;;;;;;8.40;2.50;;;;;;;20.50;82.46;101082.88;5040852;28;20060;-63
2023/09/02 06:54:21;;;;;;;6.35;2.20;;;;;;;20.64;81.49;101080.31;5040699;28;20045;-62
2023/09/02 06:56:50;;;;;;;7.18;2.10;;;;;;;20.41;82.82;101081.50;5043246;28;20432;-63
2023/09/02 06:59:17;;;;;;;4.97;2.05;;;;;;;20.52;81.93;101085.31;5043287;28;20084;-61
2023/09/02 07:01:44;;;;;;;9.30;2.33;;;;;;;20.82;81.20;101089.03;5043052;28;20053;-63
2023/09/02 07:04:12;;;;;;;7.63;2.50;;;;;;;21.01;80.13;101094.59;5044329;28;20064;-62
2023/09/02 07:06:39;;;;;;;4.63;2.35;;;;;;;21.23;79.53;101102.19;5042255;28;20526;-63
2023/09/02 07:09:06;;;;;;;6.30;2.22;;;;;;;21.37;79.02;101115.63;5041295;28;20414;-64
2023/09/02 07:11:34;;;;;;;9.45;4.40;;;;;;;21.39;77.82;101116.88;5038947;28;20045;-63
2023/09/02 07:14:02;;;;;;;6.82;4.82;;;;;;;21.54;77.54;101110.28;5035581;28;20049;-63
2023/09/02 07:16:29;;;;;;;5.82;2.63;;;;;;;21.35;77.43;101115.19;5041687;28;20045;-62
2023/09/02 07:18:58;;;;;;;7.40;2.00;;;;;;;21.56;77.30;101119.13;5043525;28;20049;-62
2023/09/02 07:21:26;;;;;;;6.65;2.47;;;;;;;21.81;76.14;101111.13;5047248;28;20049;-63
2023/09/02 07:23:53;;;;;;;12.18;7.00;;;;;;;22.07;74.83;101103.44;5048163;28;20033;-63
2023/09/02 07:26:27;;;;;;;11.98;5.78;;;;;;;22.24;73.72;101113.28;5041342;28;20064;-63
2023/09/02 07:28:54;;;;;;;4.88;2.50;;;;;;;22.17;73.52;101110.38;5041992;28;20488;-63
2023/09/02 07:31:22;;;;;;;8.88;2.38;;;;;;;22.19;73.25;101117.22;5047096;28;20055;-62
2023/09/02 07:33:49;;;;;;;6.68;2.25;;;;;;;22.06;73.77;101113.06;5046111;28;20038;-62
2023/09/02 07:36:16;;;;;;;6.78;2.47;;;;;;;21.82;74.04;101129.53;5039953;28;20065;-61
2023/09/02 07:38:46;;;;;;;6.35;2.65;;;;;;;21.64;75.30;101153.69;5043679;28;20049;-62
2023/09/02 07:41:14;;;;;;;5.47;2.45;;;;;;;21.81;74.59;101158.78;5043087;28;20048;-61
2023/09/02 07:43:41;;;;;;;5.07;2.35;;;;;;;21.88;74.08;101182.13;5045100;28;20497;-62
2023/09/02 07:46:10;;;;;;;8.10;2.08;;;;;;;22.14;74.13;101195.34;5045375;28;20539;-63
2023/09/02 07:48:38;;;;;;;8.63;2.63;;;;;;;22.31;72.91;101195.59;5045058;28;20053;-62
2023/09/02 07:51:05;;;;;;;8.27;2.72;;;;;;;22.01;73.79;101194.75;5043252;28;20055;-62
2023/09/02 07:53:32;;;;;;;9.18;4.35;;;;;;;22.07;73.82;101190.41;5043146;28;20052;-63
2023/09/02 07:55:59;;;;;;;9.18;2.95;;;;;;;22.10;73.85;101174.84;5043958;28;20708;-64
2023/09/02 07:58:27;;;;;;;6.60;2.80;;;;;;;21.89;75.39;101174.53;5046791;28;20049;-62
2023/09/02 08:00:56;;;;;;;11.02;3.55;;;;;;;21.44;77.92;101180.19;5039971;28;20075;-62
2023/09/02 08:03:24;;;;;;;11.95;3.28;;;;;;;21.42;78.62;101188.16;5045388;28;20052;-62
2023/09/02 08:05:52;;;;;;;6.30;2.80;;;;;;;21.56;78.36;101203.25;5037134;28;20049;-62
2023/09/02 08:08:19;;;;;;;7.88;2.75;;;;;;;22.06;76.53;101207.63;5041633;28;20061;-64
2023/09/02 08:10:47;;;;;;;8.98;2.75;;;;;;;22.43;74.61;101194.53;5039962;28;20063;-62
2023/09/02 08:13:14;;;;;;;11.55;2.85;;;;;;;22.31;73.89;101187.16;5044280;28;20065;-62
2023/09/02 08:15:43;;;;;;;5.53;2.70;;;;;;;22.31;73.61;101178.75;5041437;28;20049;-63
2023/09/02 08:18:10;;;;;;;8.60;2.70;;;;;;;22.14;73.76;101186.91;5044475;28;20507;-62
2023/09/02 08:20:38;;;;;;;7.75;2.78;;;;;;;22.11;74.66;101191.28;5047021;28;20044;-62
2023/09/02 08:23:05;;;;;;;6.15;2.42;;;;;;;21.94;75.00;101186.22;5042723;28;20049;-62
2023/09/02 08:25:32;;;;;;;9.48;2.58;;;;;;;21.95;74.94;101182.22;5043958;28;20049;-62
2023/09/02 08:28:00;;;;;;;9.10;3.05;;;;;;;22.09;75.19;101170.38;5041588;28;20049;-63
2023/09/02 08:30:27;;;;;;;6.97;3.00;;;;;;;22.18;74.83;101171.75;5040831;28;20404;-62
2023/09/02 08:32:55;;;;;;;8.73;2.83;;;;;;;22.16;76.10;101167.69;5044381;28;20037;-62
2023/09/02 08:35:22;;;;;;;8.70;3.28;;;;;;;21.96;76.87;101169.03;5045037;28;20041;-62
2023/09/02 08:37:51;;;;;;;6.95;3.28;;;;;;;21.47;79.34;101166.25;5040900;28;20682;-63
2023/09/02 08:40:18;;;;;;;7.40;2.80;;;;;;;21.64;78.26;101162.91;5045397;28;20052;-62
2023/09/02 08:42:46;;;;;;;6.85;2.90;;;;;;;21.46;79.12;101153.44;5047130;28;20045;-62
2023/09/02 08:45:14;;;;;;;8.93;3.05;;;;;;;21.40;79.46;101154.91;5042027;28;20057;-62
2023/09/02 08:47:45;;;;;;;7.40;2.58;;;;;;;21.62;77.98;101159.66;5038916;28;20049;-62
2023/09/02 08:50:14;;;;;;;5.00;2.42;;;;;;;21.97;76.34;101154.59;5038096;28;20052;-63
2023/09/02 08:52:41;;;;;;;8.48;2.83;;;;;;;22.27;74.39;101154.59;5040643;28;20048;-62
2023/09/02 08:55:09;;;;;;;8.15;3.15;;;;;;;21.98;74.48;101147.81;5045402;28;20060;-63
2023/09/02 08:57:39;;;;;;;7.65;2.33;;;;;;;22.05;74.28;101152.72;5022980;28;20052;-62
2023/09/02 09:00:07;;;;;;;7.45;2.53;;;;;;;22.17;73.76;101150.50;5036285;28;20045;-62
2023/09/02 09:02:37;;;;;;;9.15;2.50;;;;;;;21.97;74.05;101148.19;5047741;28;20060;-64
2023/09/02 09:05:05;;;;;;;9.75;2.97;;;;;;;22.12;73.53;101142.38;5045198;28;20042;-63
2023/09/02 09:07:32;;;;;;;5.28;2.80;;;;;;;22.38;72.65;101140.72;5042449;28;20041;-63
2023/09/02 09:10:00;;;;;;;5.25;2.83;;;;;;;22.22;72.13;101146.53;5041939;28;20056;-62
2023/09/02 09:12:29;;;;;;;7.63;3.00;;;;;;;22.18;73.58;101140.88;5030225;28;20048;-62
2023/09/02 09:15:01;;;;;;;7.43;3.27;;;;;;;22.17;73.71;101130.84;5043477;28;20037;-64
2023/09/02 09:17:30;;;;;;;7.90;3.40;;;;;;;22.45;72.41;101138.81;5042602;28;20056;-62
2023/09/02 09:20:01;;;;;;;11.35;6.30;;;;;;;22.59;71.89;101135.38;5037388;28;20119;-62
2023/09/02 09:22:28;;;;;;;7.57;3.53;;;;;;;22.39;71.94;101147.94;5038080;28;20480;-63
2023/09/02 09:24:56;;;;;;;6.85;3.50;;;;;;;22.33;72.11;101141.88;5037318;28;20067;-63
2023/09/02 09:27:24;;;;;;;7.38;3.20;;;;;;;22.38;71.95;101151.94;5038739;28;20037;-61
2023/09/02 09:29:52;;;;;;;9.52;3.30;;;;;;;22.59;71.63;101160.66;5042002;28;20052;-62
2023/09/02 09:32:22;;;;;;;11.40;3.40;;;;;;;22.71;70.71;101169.63;5042474;28;20049;-63
2023/09/02 09:34:50;;;;;;;9.15;3.42;;;;;;;22.59;71.61;101180.31;5041537;28;20049;-63
2023/09/02 09:37:17;;;;;;;6.45;3.30;;;;;;;22.78;70.69;101169.69;5048287;28;20539;-63
2023/09/02 09:39:46;;;;;;;7.28;3.75;;;;;;;22.72;70.05;101181.63;5046799;28;20045;-61
2023/09/02 09:42:15;;;;;;;9.93;4.13;;;;;;;23.12;68.88;101179.66;5042767;28;20049;-62
2023/09/02 09:44:53;;;;;;;10.27;4.10;;;;;;;22.91;69.91;101192.72;5043246;28;20531;-63
2023/09/02 09:47:21;;;;;;;8.20;3.65;;;;;;;23.14;69.62;101193.34;5036375;28;20053;-62
2023/09/02 09:49:49;;;;;;;6.47;3.50;;;;;;;23.43;68.26;101184.00;5044619;28;20056;-60
2023/09/02 09:52:18;;;;;;;7.72;3.50;;;;;;;23.60;68.25;101174.91;5046434;28;20049;-60
2023/09/02 09:54:51;;;;;;;9.00;3.40;;;;;;;22.98;69.24;101189.97;5043539;28;20048;-62
2023/09/02 09:57:35;;;;;;;8.07;3.50;;;;;;;22.88;69.92;101190.66;5039251;28;20052;-61
2023/09/02 10:00:05;;;;;;;9.88;4.10;;;;;;;22.70;70.31;101204.50;5023487;28;20060;-60
2023/09/02 10:02:33;;;;;;;7.78;3.47;;;;;;;23.24;69.82;101189.84;5043887;28;20053;-59
2023/09/02 10:05:01;;;;;;;21.13;17.45;;;;;;;23.52;69.04;101192.91;5039947;28;20056;-60
2023/09/02 10:07:31;;;;;;;12.77;5.25;;;;;;;23.55;67.83;101197.78;5045101;28;20049;-62
2023/09/02 10:10:05;;;;;;;7.85;3.45;;;;;;;23.49;67.67;101188.06;5041320;28;20086;-61
2023/09/02 10:12:35;;;;;;;7.93;3.60;;;;;;;23.46;67.00;101174.78;5048090;28;20507;-60
2023/09/02 10:15:06;;;;;;;6.32;3.38;;;;;;;23.34;67.36;101183.53;5044329;28;20536;-60
2023/09/02 10:17:35;;;;;;;8.40;3.42;;;;;;;23.22;67.57;101186.59;5045518;28;20068;-61
2023/09/02 10:20:04;;;;;;;7.68;3.40;;;;;;;23.52;67.18;101190.09;5040707;28;20060;-61
2023/09/02 10:22:32;;;;;;;7.25;3.00;;;;;;;23.85;65.89;101191.97;5040869;28;20518;-63
2023/09/02 10:25:24;;;;;;;5.20;2.90;;;;;;;23.87;65.07;101192.38;5042766;28;20520;-63
2023/09/02 10:28:10;;;;;;;6.60;2.90;;;;;;;23.93;64.87;101194.44;5042168;28;20074;-62
2023/09/02 10:30:51;;;;;;;8.57;2.42;;;;;;;23.95;64.42;101177.16;5038747;28;20045;-62
2023/09/02 10:33:38;;;;;;;4.82;2.28;;;;;;;23.97;64.12;101183.97;5039346;28;20637;-61
2023/09/02 10:36:08;;;;;;;5.28;2.13;;;;;;;24.16;63.47;101180.13;5039842;28;20053;-61
2023/09/02 10:38:42;;;;;;;6.30;2.40;;;;;;;24.28;62.76;101180.59;5042534;28;20052;-60
2023/09/02 10:41:16;;;;;;;5.13;2.00;;;;;;;24.15;62.56;101173.66;5053406;28;20049;-60
2023/09/02 10:43:45;;;;;;;6.63;2.13;;;;;;;24.35;62.01;101185.44;5042120;28;20046;-61
2023/09/02 10:46:13;;;;;;;7.43;2.40;;;;;;;24.47;62.03;101180.28;5038124;28;20679;-61
2023/09/02 10:48:43;;;;;;;7.65;2.08;;;;;;;24.48;61.33;101183.88;5040940;28;20056;-61
2023/09/02 10:51:10;;;;;;;;;;;;;;;24.47;60.88;101177.47;5024223;28;20049;-60
2023/09/02 10:53:53;;;;;;;6.13;2.30;;;;;;;24.64;61.06;101178.72;5051133;28;19924;-60
2023/09/02 10:56:27;;;;;;;8.25;2.20;;;;;;;24.69;60.00;101181.16;5044856;28;20057;-61
2023/09/02 10:58:55;;;;;;;7.35;1.83;;;;;;;24.61;60.80;101184.34;5044238;28;20053;-61
2023/09/02 11:01:23;;;;;;;6.32;1.92;;;;;;;24.66;60.69;101190.38;5044132;28;20048;-61
2023/09/02 11:03:53;;;;;;;9.43;1.80;;;;;;;24.70;60.82;101188.44;5045459;28;20050;-63
2023/09/02 11:06:20;;;;;;;5.47;1.90;;;;;;;24.84;60.50;101187.66;5036948;28;20072;-63
2023/09/02 11:08:49;;;;;;;4.95;2.00;;;;;;;24.95;59.92;101186.47;5043113;28;20070;-65
2023/09/02 11:11:18;;;;;;;5.22;1.67;;;;;;;25.01;59.58;101181.25;5051954;28;20057;-63
2023/09/02 11:14:05;;;;;;;4.15;1.95;;;;;;;25.32;58.73;101178.47;5042463;28;20048;-63
2023/09/02 11:16:34;;;;;;;6.10;1.60;;;;;;;25.24;57.98;101184.50;5038913;28;20056;-62
2023/09/02 11:19:06;;;;;;;5.20;1.70;;;;;;;25.35;57.26;101182.50;5047321;28;22083;-62
2023/09/02 11:21:40;;;;;;;6.70;1.67;;;;;;;25.24;57.40;101193.78;5048386;28;20053;-62
2023/09/02 11:24:21;;;;;;;3.50;1.55;;;;;;;25.36;56.94;101181.28;5048343;28;20072;-62
2023/09/02 11:26:59;;;;;;;3.92;1.33;;;;;;;25.51;56.34;101183.75;5049719;28;20061;-64
2023/09/02 11:29:28;;;;;;;4.35;1.40;;;;;;;25.58;56.64;101191.38;5045433;28;20725;-65
2023/09/02 11:31:58;;;;;;;4.60;1.30;;;;;;;25.58;56.52;101182.94;5043860;28;20068;-63